Sea Cloud II — 9HUE6 — position and weather

sailwx.info

Track history (hours):
 
Tides and Currents Weather Stations Pressure Air Temp Water Temp Dewpoint Dewpoint Depression Visibility Wind Speed Wind Dir Waves Ship Positions

Sea Cloud II

Ship's website: http://www.seacloud.com/en/the-ships/sea-cloud-ii.html

Last reported at 2019-Jul-22 06:04 UTC. Time now 2019-Jul-22 06:46 UTC.
Position N 55°25' W 005°35'.

Length 117 m; draft 6 m.

Type: Passenger vessel. MMSI: 248953000.

Date/timePositionNaut miles runAvg speedWind from/ knotsBaromVisibWave heightAir tempDewpointWater temp
2019-Jul-22 06:04N 55°25' W 005°35'6 3.0
2019-Jul-22 03:57N 55°22' W 005°26'11 4.8
2019-Jul-22 01:43N 55°13' W 005°37'1 4.7
2019-Jul-22 01:29N 55°13' W 005°39'3 5.3
2019-Jul-22 00:55N 55°13' W 005°44'3 5.5
2019-Jul-22 00:21N 55°13' W 005°50'2 6.0
2019-Jul-22 00:00N 55°14' W 005°54'10 8.6
2019-Jul-21 22:50N 55°21' W 006°06'3 9.6
2019-Jul-21 22:30N 55°21' W 006°11'4 8.8
2019-Jul-21 22:00N 55°21' W 006°19'4 8.9
2019-Jul-21 21:30N 55°19' W 006°26'4 8.7
2019-Jul-21 21:00N 55°17' W 006°33'4 8.0
2019-Jul-21 20:29N 55°15' W 006°39'3 5.3
2019-Jul-21 19:59N 55°12' W 006°40'0 0.0
2019-Jul-21 14:58N 55°12' W 006°40'0 0.0
2019-Jul-21 07:33N 55°12' W 006°40'0 0.7
2019-Jul-21 07:30N 55°12' W 006°40'2 4.4
2019-Jul-21 07:00N 55°14' W 006°42'3 4.6
2019-Jul-21 06:22N 55°17' W 006°42'2 5.1
2019-Jul-21 06:00N 55°19' W 006°43'3 4.8
2019-Jul-21 05:25N 55°22' W 006°45'3 7.0
2019-Jul-21 05:00N 55°25' W 006°46'4 8.2
2019-Jul-21 04:30N 55°28' W 006°49'4 8.7
2019-Jul-21 04:00N 55°33' W 006°51'4 8.3
2019-Jul-21 03:30N 55°36' W 006°54'5 8.9
2019-Jul-21 03:00N 55°41' W 006°56'5 9.6
2019-Jul-21 02:30N 55°45' W 006°59'510.0
2019-Jul-21 02:00N 55°50' W 007°02'196 8.9
2019-Jul-20 04:02N 58°42' W 004°10'013.0
2019-Jul-20 04:00N 58°42' W 004°09'612.9
2019-Jul-20 03:30N 58°43' W 003°57'612.6
2019-Jul-20 03:00N 58°43' W 003°44'712.8
2019-Jul-20 02:29N 58°43' W 003°32'713.2
2019-Jul-20 01:58N 58°43' W 003°19'612.8
2019-Jul-20 01:31N 58°43' W 003°07'510.8
2019-Jul-20 01:00N 58°41' W 002°58'4 8.2
2019-Jul-20 00:30N 58°37' W 002°56'3 6.1
2019-Jul-20 00:00N 58°34' W 002°55'3 5.5
2019-Jul-19 23:30N 58°31' W 002°54'5 5.7
2019-Jul-19 22:38N 58°26' W 002°56'57 2.0
2019-Jul-18 18:35N 57°41' W 001°49'311.6
2019-Jul-18 18:20N 57°39' W 001°46'411.8
2019-Jul-18 18:00N 57°36' W 001°42'611.8
2019-Jul-18 17:30N 57°30' W 001°43'2 4.3
2019-Jul-18 17:00N 57°30' W 001°47'0 0.0
2019-Jul-18 16:28N 57°30' W 001°47'0 0.0
2019-Jul-18 15:55N 57°30' W 001°47'0 0.0
2019-Jul-18 15:28N 57°30' W 001°47'0 0.0
2019-Jul-18 14:55N 57°30' W 001°47'0 0.0
2019-Jul-18 14:28N 57°30' W 001°47'0 0.0
2019-Jul-18 13:58N 57°30' W 001°47'0 0.0
2019-Jul-18 13:28N 57°30' W 001°47'0 0.0
2019-Jul-18 12:58N 57°30' W 001°47'2 3.6
2019-Jul-18 12:30N 57°29' W 001°44'3 5.9
2019-Jul-18 12:00N 57°26' W 001°43'3 6.0
2019-Jul-18 11:30N 57°23' W 001°43'3 5.8
2019-Jul-18 11:00N 57°20' W 001°45'4 7.1
2019-Jul-18 10:30N 57°17' W 001°48'710.4
2019-Jul-18 09:52N 57°12' W 001°56'411.1
2019-Jul-18 09:30N 57°10' W 002°02'2 4.1
2019-Jul-18 08:59N 57°09' W 002°05'0 0.0
2019-Jul-18 08:29N 57°09' W 002°05'0 0.0
2019-Jul-18 07:59N 57°09' W 002°05'0 0.0
2019-Jul-18 07:29N 57°09' W 002°05'0 0.0
2019-Jul-18 06:59N 57°09' W 002°05'0 0.0
2019-Jul-18 06:26N 57°09' W 002°05'0 0.0
2019-Jul-18 05:59N 57°09' W 002°05'0 0.0
2019-Jul-18 05:29N 57°09' W 002°05'0 0.8
2019-Jul-18 05:00N 57°09' W 002°05'1 3.0
2019-Jul-18 04:30N 57°09' W 002°02'2 4.7
2019-Jul-18 04:00N 57°07' W 001°59'3 5.0
2019-Jul-18 03:30N 57°05' W 001°59'3 5.6
2019-Jul-18 03:00N 57°02' W 002°00'3 5.8
2019-Jul-18 02:30N 56°59' W 002°01'4 7.1
2019-Jul-18 02:00N 56°56' W 002°01'49 9.6
2019-Jul-17 20:54N 56°09' W 002°30'810.9
2019-Jul-17 20:10N 56°07' W 002°44'211.4
2019-Jul-17 20:00N 56°06' W 002°47'611.4
2019-Jul-17 19:30N 56°04' W 002°56'510.7
2019-Jul-17 19:00N 56°02' W 003°05'4 8.4
2019-Jul-17 18:30N 55°60' W 003°11'0 0.7
2019-Jul-17 18:00N 55°59' W 003°11'0 0.4
2019-Jul-17 17:30N 55°59' W 003°11'0 0.4
2019-Jul-17 17:00N 55°59' W 003°11'0 0.0
2019-Jul-17 16:30N 55°59' W 003°11'0 0.0
2019-Jul-17 15:54N 55°59' W 003°11'0 0.0
2019-Jul-17 15:30N 55°59' W 003°11'0 0.0
2019-Jul-17 15:00N 55°59' W 003°11'0 0.0
2019-Jul-17 14:30N 55°59' W 003°11'0 0.0
2019-Jul-17 13:57N 55°59' W 003°11'0 0.0
2019-Jul-17 13:30N 55°59' W 003°11'0 0.0
2019-Jul-17 13:00N 55°59' W 003°11'0 0.0
2019-Jul-17 12:30N 55°59' W 003°11'0 0.0
2019-Jul-17 12:00N 55°59' W 003°11'0 0.0
2019-Jul-17 11:30N 55°59' W 003°11'0 0.0
2019-Jul-17 11:00N 55°59' W 003°11'0 0.0
2019-Jul-17 10:27N 55°59' W 003°11'0 0.0
2019-Jul-17 10:00N 55°59' W 003°11'0 0.0
2019-Jul-17 09:30N 55°59' W 003°11'0 0.0
2019-Jul-17 08:57N 55°59' W 003°11'0 0.0
2019-Jul-17 08:30N 55°59' W 003°11'0 0.0
2019-Jul-17 07:57N 55°59' W 003°11'0 0.0
2019-Jul-17 07:30N 55°59' W 003°11'0 0.0
2019-Jul-17 07:00N 55°59' W 003°11'0 0.0
2019-Jul-17 06:30N 55°59' W 003°11'0 0.0
2019-Jul-17 06:00N 55°59' W 003°11'0 0.0
2019-Jul-17 05:30N 55°59' W 003°11'0 0.0
2019-Jul-17 05:00N 55°59' W 003°11'0 0.0
2019-Jul-17 04:30N 55°59' W 003°11'0 0.0
2019-Jul-17 04:00N 55°59' W 003°11'0 0.0
2019-Jul-17 03:30N 55°59' W 003°11'0 0.0
2019-Jul-17 03:00N 55°59' W 003°11'0 0.0
2019-Jul-17 02:30N 55°59' W 003°11'0 0.0
2019-Jul-17 01:57N 55°59' W 003°11'0 0.0
2019-Jul-17 01:30N 55°59' W 003°11'0 0.0
2019-Jul-17 01:00N 55°59' W 003°11'0 0.0
2019-Jul-17 00:30N 55°59' W 003°11'0 0.0
2019-Jul-17 00:00N 55°59' W 003°11'0 0.0
2019-Jul-16 23:30N 55°59' W 003°11'0 0.0
2019-Jul-16 23:00N 55°59' W 003°11'0 0.0
2019-Jul-16 22:30N 55°59' W 003°11'0 0.0
2019-Jul-16 21:57N 55°59' W 003°11'0 0.0
2019-Jul-16 21:27N 55°59' W 003°11'0 0.0
2019-Jul-16 21:00N 55°59' W 003°11'0 0.0
2019-Jul-16 20:30N 55°59' W 003°11'0 0.0
2019-Jul-16 19:57N 55°59' W 003°11'0 0.0
2019-Jul-16 19:30N 55°59' W 003°11'0 0.0
2019-Jul-16 19:00N 55°59' W 003°11'0 0.0
2019-Jul-16 18:27N 55°59' W 003°11'0 0.0
2019-Jul-16 18:00N 55°59' W 003°11'0 0.0
2019-Jul-16 17:27N 55°59' W 003°11'0 0.0
2019-Jul-16 16:57N 55°59' W 003°11'0 0.0
2019-Jul-16 16:27N 55°59' W 003°11'0 0.0
2019-Jul-16 16:00N 55°59' W 003°11'0 0.0
2019-Jul-16 15:27N 55°59' W 003°11'0 0.0
2019-Jul-16 14:57N 55°59' W 003°11'0 0.0
2019-Jul-16 14:30N 55°59' W 003°11'0 0.0
2019-Jul-16 14:00N 55°59' W 003°11'0 0.0
2019-Jul-16 13:27N 55°59' W 003°11'0 0.0
2019-Jul-16 13:00N 55°59' W 003°11'0 0.0
2019-Jul-16 12:27N 55°59' W 003°11'0 0.0
2019-Jul-16 11:57N 55°59' W 003°11'0 0.0
2019-Jul-16 11:27N 55°59' W 003°11'0 0.0
2019-Jul-16 11:00N 55°59' W 003°11'0 0.0
2019-Jul-16 10:27N 55°59' W 003°11'0 0.0
2019-Jul-16 09:57N 55°59' W 003°11'0 0.0
2019-Jul-16 09:27N 55°59' W 003°11'0 0.0
2019-Jul-16 09:00N 55°59' W 003°11'0 0.0
2019-Jul-16 08:27N 55°59' W 003°11'0 0.0
2019-Jul-16 07:51N 55°59' W 003°11'0 0.0
2019-Jul-16 07:27N 55°59' W 003°11'0 0.0
2019-Jul-16 06:57N 55°59' W 003°11'0 0.0
2019-Jul-16 06:27N 55°59' W 003°11'0 0.0
2019-Jul-16 06:00N 55°59' W 003°11'0 0.0
2019-Jul-16 05:27N 55°59' W 003°11'0 0.0
2019-Jul-16 05:00N 55°59' W 003°11'0 0.0
2019-Jul-16 04:27N 55°59' W 003°11'0 0.0
2019-Jul-16 04:00N 55°59' W 003°11'0 0.0
2019-Jul-16 03:30N 55°59' W 003°11'0 0.0
2019-Jul-16 02:57N 55°59' W 003°11'0 0.0
2019-Jul-16 02:27N 55°59' W 003°11'0 0.0
2019-Jul-16 02:00N 55°59' W 003°11'0 0.0
2019-Jul-16 01:30N 55°59' W 003°11'0 0.4
2019-Jul-16 01:00N 55°59' W 003°11'0 0.4
2019-Jul-16 00:30N 55°59' W 003°11'1 2.4
2019-Jul-15 23:57N 56°00' W 003°10'3 6.9
2019-Jul-15 23:30N 56°02' W 003°05'3 6.9
2019-Jul-15 23:00N 56°03' W 002°59'3 5.1
2019-Jul-15 22:30N 56°04' W 002°55'3 6.5
2019-Jul-15 22:00N 56°06' W 002°50'3 6.6
2019-Jul-15 21:30N 56°07' W 002°44'4 7.0
2019-Jul-15 21:00N 56°08' W 002°38'4 8.3
2019-Jul-15 20:30N 56°09' W 002°31'6 9.9
2019-Jul-15 19:54N 56°14' W 002°26'410.3
2019-Jul-15 19:30N 56°17' W 002°21'510.2
2019-Jul-15 19:00N 56°21' W 002°15'810.1
2019-Jul-15 18:11N 56°28' W 002°07'210.3
2019-Jul-15 17:58N 56°30' W 002°07'3410.5
2019-Jul-15 14:43N 57°04' W 002°04'1 4.0
2019-Jul-15 14:30N 57°05' W 002°03'2 4.7
2019-Jul-15 14:00N 57°06' W 001°60'2 4.2
2019-Jul-15 13:30N 57°08' W 001°58'4 7.2
2019-Jul-15 13:00N 57°08' W 002°04'1 1.3
2019-Jul-15 12:30N 57°09' W 002°05'0 0.0
2019-Jul-15 11:59N 57°09' W 002°05'0 0.0
2019-Jul-15 11:29N 57°09' W 002°05'0 0.0
2019-Jul-15 10:55N 57°09' W 002°05'0 0.0
2019-Jul-15 10:28N 57°09' W 002°05'0 0.0
2019-Jul-15 09:58N 57°09' W 002°05'0 0.0
2019-Jul-15 09:28N 57°09' W 002°05'0 0.0
2019-Jul-15 08:55N 57°09' W 002°05'0 0.0
2019-Jul-15 08:28N 57°09' W 002°05'0 0.0
2019-Jul-15 07:58N 57°09' W 002°05'0 0.0
2019-Jul-15 07:28N 57°09' W 002°05'0 0.3
2019-Jul-15 07:00N 57°09' W 002°05'2 3.9
2019-Jul-15 06:31N 57°10' W 002°02'0 0.3
2019-Jul-15 06:01N 57°09' W 002°02'3 5.4
2019-Jul-15 05:30N 57°11' W 001°58'3 6.0
2019-Jul-15 05:01N 57°12' W 001°53'4 6.7
2019-Jul-15 04:29N 57°15' W 001°49'4 8.5
2019-Jul-15 04:00N 57°19' W 001°46'4 8.9
2019-Jul-15 03:31N 57°23' W 001°44'5 9.3
2019-Jul-15 03:01N 57°27' W 001°41'4 7.3
2019-Jul-15 02:31N 57°31' W 001°39'4 7.8
2019-Jul-15 02:00N 57°35' W 001°40'4 8.0
2019-Jul-15 01:30N 57°39' W 001°42'64 2.3
2019-Jul-13 21:25N 58°31' W 002°52'510.3
2019-Jul-13 20:58N 58°35' W 002°48'4 9.7
2019-Jul-13 20:30N 58°39' W 002°44'1010.8
2019-Jul-13 19:34N 58°49' W 002°36'111.7
2019-Jul-13 19:29N 58°49' W 002°36'910.5
2019-Jul-13 18:37N 58°59' W 002°37'212.1
2019-Jul-13 18:28N 58°59' W 002°40'611.7
2019-Jul-13 18:00N 59°01' W 002°50'4 7.8
2019-Jul-13 17:30N 58°60' W 002°58'0 0.6
2019-Jul-13 16:58N 59°00' W 002°58'0 0.0
2019-Jul-13 16:28N 59°00' W 002°58'0 0.0
2019-Jul-13 15:58N 59°00' W 002°58'0 0.0
2019-Jul-13 15:28N 59°00' W 002°58'0 0.0
2019-Jul-13 14:58N 59°00' W 002°58'0 0.0
2019-Jul-13 14:28N 59°00' W 002°58'0 0.0
2019-Jul-13 13:58N 59°00' W 002°58'0 0.0
2019-Jul-13 13:28N 59°00' W 002°58'0 0.0
2019-Jul-13 12:58N 59°00' W 002°58'0 0.0
2019-Jul-13 12:28N 59°00' W 002°58'0 0.0
2019-Jul-13 11:58N 59°00' W 002°58'1 1.3
2019-Jul-13 11:30N 59°00' W 002°57'4 7.6
2019-Jul-13 10:59N 59°01' W 002°50'3 5.8
2019-Jul-13 10:30N 59°02' W 002°45'4 8.2
2019-Jul-13 10:00N 59°06' W 002°46'4 7.6
2019-Jul-13 09:30N 59°09' W 002°50'3 5.7
2019-Jul-13 09:00N 59°11' W 002°53'4 7.0
2019-Jul-13 08:30N 59°13' W 002°59'4 7.1
2019-Jul-13 08:00N 59°14' W 003°06'3 5.9
2019-Jul-13 07:30N 59°13' W 003°11'3 5.8
2019-Jul-13 07:00N 59°13' W 003°17'3 6.1
2019-Jul-13 06:26N 59°11' W 003°23'3 7.2
2019-Jul-13 05:59N 59°10' W 003°28'3 7.0
2019-Jul-13 05:30N 59°08' W 003°34'3 7.0
2019-Jul-13 05:00N 59°06' W 003°40'4 7.1
2019-Jul-13 04:30N 59°04' W 003°46'4 7.7
2019-Jul-13 04:00N 59°02' W 003°52'5 9.8
2019-Jul-13 03:30N 59°00' W 004°01'611.0
2019-Jul-13 03:00N 58°57' W 004°10'510.9
2019-Jul-13 02:30N 58°54' W 004°19'510.8
2019-Jul-13 02:00N 58°52' W 004°28'73 5.1
2019-Jul-12 11:40N 57°49' W 005°39'  
Track history (hours):
 
Tides and Currents Weather Stations Pressure Air Temp Water Temp Dewpoint Dewpoint Depression Visibility Wind Speed Wind Dir Waves Ship Positions

Sea Cloud II

Ship's website: http://www.seacloud.com/en/the-ships/sea-cloud-ii.html

Last reported at 2019-Jul-22 06:04 UTC. Time now 2019-Jul-22 06:46 UTC.
Position N 55°25' W 005°35'.

Length 117 m; draft 6 m.

Type: Passenger vessel. MMSI: 248953000.

Date/timePositionNaut miles runAvg speedWind from/ knotsBaromVisibWave heightAir tempDewpointWater temp
2019-Jul-22 06:04N 55°25' W 005°35'6 3.0
2019-Jul-22 03:57N 55°22' W 005°26'11 4.8
2019-Jul-22 01:43N 55°13' W 005°37'1 4.7
2019-Jul-22 01:29N 55°13' W 005°39'3 5.3
2019-Jul-22 00:55N 55°13' W 005°44'3 5.5
2019-Jul-22 00:21N 55°13' W 005°50'2 6.0
2019-Jul-22 00:00N 55°14' W 005°54'10 8.6
2019-Jul-21 22:50N 55°21' W 006°06'3 9.6
2019-Jul-21 22:30N 55°21' W 006°11'4 8.8
2019-Jul-21 22:00N 55°21' W 006°19'4 8.9
2019-Jul-21 21:30N 55°19' W 006°26'4 8.7
2019-Jul-21 21:00N 55°17' W 006°33'4 8.0
2019-Jul-21 20:29N 55°15' W 006°39'3 5.3
2019-Jul-21 19:59N 55°12' W 006°40'0 0.0
2019-Jul-21 14:58N 55°12' W 006°40'0 0.0
2019-Jul-21 07:33N 55°12' W 006°40'0 0.7
2019-Jul-21 07:30N 55°12' W 006°40'2 4.4
2019-Jul-21 07:00N 55°14' W 006°42'3 4.6
2019-Jul-21 06:22N 55°17' W 006°42'2 5.1
2019-Jul-21 06:00N 55°19' W 006°43'3 4.8
2019-Jul-21 05:25N 55°22' W 006°45'3 7.0
2019-Jul-21 05:00N 55°25' W 006°46'4 8.2
2019-Jul-21 04:30N 55°28' W 006°49'4 8.7
2019-Jul-21 04:00N 55°33' W 006°51'4 8.3
2019-Jul-21 03:30N 55°36' W 006°54'5 8.9
2019-Jul-21 03:00N 55°41' W 006°56'5 9.6
2019-Jul-21 02:30N 55°45' W 006°59'510.0
2019-Jul-21 02:00N 55°50' W 007°02'196 8.9
2019-Jul-20 04:02N 58°42' W 004°10'013.0
2019-Jul-20 04:00N 58°42' W 004°09'612.9
2019-Jul-20 03:30N 58°43' W 003°57'612.6
2019-Jul-20 03:00N 58°43' W 003°44'712.8
2019-Jul-20 02:29N 58°43' W 003°32'713.2
2019-Jul-20 01:58N 58°43' W 003°19'612.8
2019-Jul-20 01:31N 58°43' W 003°07'510.8
2019-Jul-20 01:00N 58°41' W 002°58'4 8.2
2019-Jul-20 00:30N 58°37' W 002°56'3 6.1
2019-Jul-20 00:00N 58°34' W 002°55'3 5.5
2019-Jul-19 23:30N 58°31' W 002°54'5 5.7
2019-Jul-19 22:38N 58°26' W 002°56'57 2.0
2019-Jul-18 18:35N 57°41' W 001°49'311.6
2019-Jul-18 18:20N 57°39' W 001°46'411.8
2019-Jul-18 18:00N 57°36' W 001°42'611.8
2019-Jul-18 17:30N 57°30' W 001°43'2 4.3
2019-Jul-18 17:00N 57°30' W 001°47'0 0.0
2019-Jul-18 16:28N 57°30' W 001°47'0 0.0
2019-Jul-18 15:55N 57°30' W 001°47'0 0.0
2019-Jul-18 15:28N 57°30' W 001°47'0 0.0
2019-Jul-18 14:55N 57°30' W 001°47'0 0.0
2019-Jul-18 14:28N 57°30' W 001°47'0 0.0
2019-Jul-18 13:58N 57°30' W 001°47'0 0.0
2019-Jul-18 13:28N 57°30' W 001°47'0 0.0
2019-Jul-18 12:58N 57°30' W 001°47'2 3.6
2019-Jul-18 12:30N 57°29' W 001°44'3 5.9
2019-Jul-18 12:00N 57°26' W 001°43'3 6.0
2019-Jul-18 11:30N 57°23' W 001°43'3 5.8
2019-Jul-18 11:00N 57°20' W 001°45'4 7.1
2019-Jul-18 10:30N 57°17' W 001°48'710.4
2019-Jul-18 09:52N 57°12' W 001°56'411.1
2019-Jul-18 09:30N 57°10' W 002°02'2 4.1
2019-Jul-18 08:59N 57°09' W 002°05'0 0.0
2019-Jul-18 08:29N 57°09' W 002°05'0 0.0
2019-Jul-18 07:59N 57°09' W 002°05'0 0.0
2019-Jul-18 07:29N 57°09' W 002°05'0 0.0
2019-Jul-18 06:59N 57°09' W 002°05'0 0.0
2019-Jul-18 06:26N 57°09' W 002°05'0 0.0
2019-Jul-18 05:59N 57°09' W 002°05'0 0.0
2019-Jul-18 05:29N 57°09' W 002°05'0 0.8
2019-Jul-18 05:00N 57°09' W 002°05'1 3.0
2019-Jul-18 04:30N 57°09' W 002°02'2 4.7
2019-Jul-18 04:00N 57°07' W 001°59'3 5.0
2019-Jul-18 03:30N 57°05' W 001°59'3 5.6
2019-Jul-18 03:00N 57°02' W 002°00'3 5.8
2019-Jul-18 02:30N 56°59' W 002°01'4 7.1
2019-Jul-18 02:00N 56°56' W 002°01'49 9.6
2019-Jul-17 20:54N 56°09' W 002°30'810.9
2019-Jul-17 20:10N 56°07' W 002°44'211.4
2019-Jul-17 20:00N 56°06' W 002°47'611.4
2019-Jul-17 19:30N 56°04' W 002°56'510.7
2019-Jul-17 19:00N 56°02' W 003°05'4 8.4
2019-Jul-17 18:30N 55°60' W 003°11'0 0.7
2019-Jul-17 18:00N 55°59' W 003°11'0 0.4
2019-Jul-17 17:30N 55°59' W 003°11'0 0.4
2019-Jul-17 17:00N 55°59' W 003°11'0 0.0
2019-Jul-17 16:30N 55°59' W 003°11'0 0.0
2019-Jul-17 15:54N 55°59' W 003°11'0 0.0
2019-Jul-17 15:30N 55°59' W 003°11'0 0.0
2019-Jul-17 15:00N 55°59' W 003°11'0 0.0
2019-Jul-17 14:30N 55°59' W 003°11'0 0.0
2019-Jul-17 13:57N 55°59' W 003°11'0 0.0
2019-Jul-17 13:30N 55°59' W 003°11'0 0.0
2019-Jul-17 13:00N 55°59' W 003°11'0 0.0
2019-Jul-17 12:30N 55°59' W 003°11'0 0.0
2019-Jul-17 12:00N 55°59' W 003°11'0 0.0
2019-Jul-17 11:30N 55°59' W 003°11'0 0.0
2019-Jul-17 11:00N 55°59' W 003°11'0 0.0
2019-Jul-17 10:27N 55°59' W 003°11'0 0.0
2019-Jul-17 10:00N 55°59' W 003°11'0 0.0
2019-Jul-17 09:30N 55°59' W 003°11'0 0.0
2019-Jul-17 08:57N 55°59' W 003°11'0 0.0
2019-Jul-17 08:30N 55°59' W 003°11'0 0.0
2019-Jul-17 07:57N 55°59' W 003°11'0 0.0
2019-Jul-17 07:30N 55°59' W 003°11'0 0.0
2019-Jul-17 07:00N 55°59' W 003°11'0 0.0
2019-Jul-17 06:30N 55°59' W 003°11'0 0.0
2019-Jul-17 06:00N 55°59' W 003°11'0 0.0
2019-Jul-17 05:30N 55°59' W 003°11'0 0.0
2019-Jul-17 05:00N 55°59' W 003°11'0 0.0
2019-Jul-17 04:30N 55°59' W 003°11'0 0.0
2019-Jul-17 04:00N 55°59' W 003°11'0 0.0
2019-Jul-17 03:30N 55°59' W 003°11'0 0.0
2019-Jul-17 03:00N 55°59' W 003°11'0 0.0
2019-Jul-17 02:30N 55°59' W 003°11'0 0.0
2019-Jul-17 01:57N 55°59' W 003°11'0 0.0
2019-Jul-17 01:30N 55°59' W 003°11'0 0.0
2019-Jul-17 01:00N 55°59' W 003°11'0 0.0
2019-Jul-17 00:30N 55°59' W 003°11'0 0.0
2019-Jul-17 00:00N 55°59' W 003°11'0 0.0
2019-Jul-16 23:30N 55°59' W 003°11'0 0.0
2019-Jul-16 23:00N 55°59' W 003°11'0 0.0
2019-Jul-16 22:30N 55°59' W 003°11'0 0.0
2019-Jul-16 21:57N 55°59' W 003°11'0 0.0
2019-Jul-16 21:27N 55°59' W 003°11'0 0.0
2019-Jul-16 21:00N 55°59' W 003°11'0 0.0
2019-Jul-16 20:30N 55°59' W 003°11'0 0.0
2019-Jul-16 19:57N 55°59' W 003°11'0 0.0
2019-Jul-16 19:30N 55°59' W 003°11'0 0.0
2019-Jul-16 19:00N 55°59' W 003°11'0 0.0
2019-Jul-16 18:27N 55°59' W 003°11'0 0.0
2019-Jul-16 18:00N 55°59' W 003°11'0 0.0
2019-Jul-16 17:27N 55°59' W 003°11'0 0.0
2019-Jul-16 16:57N 55°59' W 003°11'0 0.0
2019-Jul-16 16:27N 55°59' W 003°11'0 0.0
2019-Jul-16 16:00N 55°59' W 003°11'0 0.0
2019-Jul-16 15:27N 55°59' W 003°11'0 0.0
2019-Jul-16 14:57N 55°59' W 003°11'0 0.0
2019-Jul-16 14:30N 55°59' W 003°11'0 0.0
2019-Jul-16 14:00N 55°59' W 003°11'0 0.0
2019-Jul-16 13:27N 55°59' W 003°11'0 0.0
2019-Jul-16 13:00N 55°59' W 003°11'0 0.0
2019-Jul-16 12:27N 55°59' W 003°11'0 0.0
2019-Jul-16 11:57N 55°59' W 003°11'0 0.0
2019-Jul-16 11:27N 55°59' W 003°11'0 0.0
2019-Jul-16 11:00N 55°59' W 003°11'0 0.0
2019-Jul-16 10:27N 55°59' W 003°11'0 0.0
2019-Jul-16 09:57N 55°59' W 003°11'0 0.0
2019-Jul-16 09:27N 55°59' W 003°11'0 0.0
2019-Jul-16 09:00N 55°59' W 003°11'0 0.0
2019-Jul-16 08:27N 55°59' W 003°11'0 0.0
2019-Jul-16 07:51N 55°59' W 003°11'0 0.0
2019-Jul-16 07:27N 55°59' W 003°11'0 0.0
2019-Jul-16 06:57N 55°59' W 003°11'0 0.0
2019-Jul-16 06:27N 55°59' W 003°11'0 0.0
2019-Jul-16 06:00N 55°59' W 003°11'0 0.0
2019-Jul-16 05:27N 55°59' W 003°11'0 0.0
2019-Jul-16 05:00N 55°59' W 003°11'0 0.0
2019-Jul-16 04:27N 55°59' W 003°11'0 0.0
2019-Jul-16 04:00N 55°59' W 003°11'0 0.0
2019-Jul-16 03:30N 55°59' W 003°11'0 0.0
2019-Jul-16 02:57N 55°59' W 003°11'0 0.0
2019-Jul-16 02:27N 55°59' W 003°11'0 0.0
2019-Jul-16 02:00N 55°59' W 003°11'0 0.0
2019-Jul-16 01:30N 55°59' W 003°11'0 0.4
2019-Jul-16 01:00N 55°59' W 003°11'0 0.4
2019-Jul-16 00:30N 55°59' W 003°11'1 2.4
2019-Jul-15 23:57N 56°00' W 003°10'3 6.9
2019-Jul-15 23:30N 56°02' W 003°05'3 6.9
2019-Jul-15 23:00N 56°03' W 002°59'3 5.1
2019-Jul-15 22:30N 56°04' W 002°55'3 6.5
2019-Jul-15 22:00N 56°06' W 002°50'3 6.6
2019-Jul-15 21:30N 56°07' W 002°44'4 7.0
2019-Jul-15 21:00N 56°08' W 002°38'4 8.3
2019-Jul-15 20:30N 56°09' W 002°31'6 9.9
2019-Jul-15 19:54N 56°14' W 002°26'410.3
2019-Jul-15 19:30N 56°17' W 002°21'510.2
2019-Jul-15 19:00N 56°21' W 002°15'810.1
2019-Jul-15 18:11N 56°28' W 002°07'210.3
2019-Jul-15 17:58N 56°30' W 002°07'3410.5
2019-Jul-15 14:43N 57°04' W 002°04'1 4.0
2019-Jul-15 14:30N 57°05' W 002°03'2 4.7
2019-Jul-15 14:00N 57°06' W 001°60'2 4.2
2019-Jul-15 13:30N 57°08' W 001°58'4 7.2
2019-Jul-15 13:00N 57°08' W 002°04'1 1.3
2019-Jul-15 12:30N 57°09' W 002°05'0 0.0
2019-Jul-15 11:59N 57°09' W 002°05'0 0.0
2019-Jul-15 11:29N 57°09' W 002°05'0 0.0
2019-Jul-15 10:55N 57°09' W 002°05'0 0.0
2019-Jul-15 10:28N 57°09' W 002°05'0 0.0
2019-Jul-15 09:58N 57°09' W 002°05'0 0.0
2019-Jul-15 09:28N 57°09' W 002°05'0 0.0
2019-Jul-15 08:55N 57°09' W 002°05'0 0.0
2019-Jul-15 08:28N 57°09' W 002°05'0 0.0
2019-Jul-15 07:58N 57°09' W 002°05'0 0.0
2019-Jul-15 07:28N 57°09' W 002°05'0 0.3
2019-Jul-15 07:00N 57°09' W 002°05'2 3.9
2019-Jul-15 06:31N 57°10' W 002°02'0 0.3
2019-Jul-15 06:01N 57°09' W 002°02'3 5.4
2019-Jul-15 05:30N 57°11' W 001°58'3 6.0
2019-Jul-15 05:01N 57°12' W 001°53'4 6.7
2019-Jul-15 04:29N 57°15' W 001°49'4 8.5
2019-Jul-15 04:00N 57°19' W 001°46'4 8.9
2019-Jul-15 03:31N 57°23' W 001°44'5 9.3
2019-Jul-15 03:01N 57°27' W 001°41'4 7.3
2019-Jul-15 02:31N 57°31' W 001°39'4 7.8
2019-Jul-15 02:00N 57°35' W 001°40'4 8.0
2019-Jul-15 01:30N 57°39' W 001°42'64 2.3
2019-Jul-13 21:25N 58°31' W 002°52'510.3
2019-Jul-13 20:58N 58°35' W 002°48'4 9.7
2019-Jul-13 20:30N 58°39' W 002°44'1010.8
2019-Jul-13 19:34N 58°49' W 002°36'111.7
2019-Jul-13 19:29N 58°49' W 002°36'910.5
2019-Jul-13 18:37N 58°59' W 002°37'212.1
2019-Jul-13 18:28N 58°59' W 002°40'611.7
2019-Jul-13 18:00N 59°01' W 002°50'4 7.8
2019-Jul-13 17:30N 58°60' W 002°58'0 0.6
2019-Jul-13 16:58N 59°00' W 002°58'0 0.0
2019-Jul-13 16:28N 59°00' W 002°58'0 0.0
2019-Jul-13 15:58N 59°00' W 002°58'0 0.0
2019-Jul-13 15:28N 59°00' W 002°58'0 0.0
2019-Jul-13 14:58N 59°00' W 002°58'0 0.0
2019-Jul-13 14:28N 59°00' W 002°58'0 0.0
2019-Jul-13 13:58N 59°00' W 002°58'0 0.0
2019-Jul-13 13:28N 59°00' W 002°58'0 0.0
2019-Jul-13 12:58N 59°00' W 002°58'0 0.0
2019-Jul-13 12:28N 59°00' W 002°58'0 0.0
2019-Jul-13 11:58N 59°00' W 002°58'1 1.3
2019-Jul-13 11:30N 59°00' W 002°57'4 7.6
2019-Jul-13 10:59N 59°01' W 002°50'3 5.8
2019-Jul-13 10:30N 59°02' W 002°45'4 8.2
2019-Jul-13 10:00N 59°06' W 002°46'4 7.6
2019-Jul-13 09:30N 59°09' W 002°50'3 5.7
2019-Jul-13 09:00N 59°11' W 002°53'4 7.0
2019-Jul-13 08:30N 59°13' W 002°59'4 7.1
2019-Jul-13 08:00N 59°14' W 003°06'3 5.9
2019-Jul-13 07:30N 59°13' W 003°11'3 5.8
2019-Jul-13 07:00N 59°13' W 003°17'3 6.1
2019-Jul-13 06:26N 59°11' W 003°23'3 7.2
2019-Jul-13 05:59N 59°10' W 003°28'3 7.0
2019-Jul-13 05:30N 59°08' W 003°34'3 7.0
2019-Jul-13 05:00N 59°06' W 003°40'4 7.1
2019-Jul-13 04:30N 59°04' W 003°46'4 7.7
2019-Jul-13 04:00N 59°02' W 003°52'5 9.8
2019-Jul-13 03:30N 59°00' W 004°01'611.0
2019-Jul-13 03:00N 58°57' W 004°10'510.9
2019-Jul-13 02:30N 58°54' W 004°19'510.8
2019-Jul-13 02:00N 58°52' W 004°28'73 5.1
2019-Jul-12 11:40N 57°49' W 005°39'  

Dump ship's entire track history